createdAt,value
2018-12-16T00:00:19.738Z,985.03
2018-12-16T00:01:19.919Z,985.00
2018-12-16T00:02:20.105Z,984.99
2018-12-16T00:03:20.281Z,984.95
2018-12-16T00:04:20.461Z,984.95
2018-12-16T00:05:20.644Z,984.94
2018-12-16T00:06:20.819Z,984.89
2018-12-16T00:07:20.998Z,984.89
2018-12-16T00:08:21.182Z,984.78
2018-12-16T00:09:21.354Z,984.79
2018-12-16T00:10:21.529Z,984.75
2018-12-16T00:11:21.696Z,984.72
2018-12-16T00:12:21.873Z,984.72
2018-12-16T00:13:22.053Z,984.67
2018-12-16T00:14:22.236Z,984.67
2018-12-16T00:15:22.444Z,984.63
2018-12-16T00:16:22.613Z,984.65
2018-12-16T00:17:22.795Z,984.64
2018-12-16T00:18:22.979Z,984.62
2018-12-16T00:19:23.154Z,984.60
2018-12-16T00:20:23.332Z,984.60
2018-12-16T00:21:23.509Z,984.65
2018-12-16T00:22:29.723Z,984.64
2018-12-16T00:23:23.885Z,984.67
2018-12-16T00:24:24.060Z,984.67
2018-12-16T00:25:24.252Z,984.72
2018-12-16T00:26:24.431Z,984.67
2018-12-16T00:27:24.613Z,984.68
2018-12-16T00:28:24.787Z,984.70
2018-12-16T00:29:24.964Z,984.70
2018-12-16T00:30:25.142Z,984.68
2018-12-16T00:31:25.330Z,984.74
2018-12-16T00:32:25.506Z,984.74
2018-12-16T00:33:25.691Z,984.75
2018-12-16T00:34:25.875Z,984.84
2018-12-16T00:35:26.053Z,984.81
2018-12-16T00:36:26.233Z,984.76
2018-12-16T00:37:26.420Z,984.78
2018-12-16T00:38:26.599Z,984.77
2018-12-16T00:39:26.766Z,984.76
2018-12-16T00:40:26.948Z,984.79
2018-12-16T00:41:27.123Z,984.76
2018-12-16T00:42:27.305Z,984.73
2018-12-16T00:43:27.478Z,984.73
2018-12-16T00:44:27.655Z,984.68
2018-12-16T00:45:27.821Z,984.62
2018-12-16T00:46:28.003Z,984.58
2018-12-16T00:47:28.184Z,984.55
2018-12-16T00:48:28.417Z,984.47
2018-12-16T00:49:28.536Z,984.46
2018-12-16T00:50:28.712Z,984.38
2018-12-16T00:51:28.890Z,984.35
2018-12-16T00:52:29.079Z,984.28
2018-12-16T00:53:29.256Z,984.25
2018-12-16T00:54:29.431Z,984.25
2018-12-16T00:55:29.606Z,984.19
2018-12-16T00:56:29.782Z,984.19
2018-12-16T00:57:29.959Z,984.14
2018-12-16T00:58:30.136Z,984.06
2018-12-16T00:59:30.325Z,984.02
2018-12-16T01:00:30.503Z,983.99
2018-12-16T01:01:30.677Z,983.95
2018-12-16T01:02:30.855Z,983.92
2018-12-16T01:03:31.033Z,983.97
2018-12-16T01:04:31.203Z,983.98
2018-12-16T01:05:31.382Z,984.00
2018-12-16T01:06:31.556Z,984.05
2018-12-16T01:07:31.738Z,984.06
2018-12-16T01:08:31.913Z,984.02
2018-12-16T01:09:32.090Z,984.06
2018-12-16T01:10:32.266Z,984.09
2018-12-16T01:11:32.440Z,984.08
2018-12-16T01:12:32.617Z,984.09
2018-12-16T01:13:32.800Z,984.07
2018-12-16T01:14:32.982Z,984.07
2018-12-16T01:15:33.156Z,984.10
2018-12-16T01:16:33.335Z,984.10
2018-12-16T01:17:33.509Z,984.08
2018-12-16T01:18:33.685Z,984.05
2018-12-16T01:19:33.868Z,983.97
2018-12-16T01:20:34.042Z,983.99
2018-12-16T01:21:34.215Z,984.01
2018-12-16T01:22:34.392Z,984.04
2018-12-16T01:23:34.573Z,984.05
2018-12-16T01:24:34.750Z,984.03
2018-12-16T01:25:34.920Z,984.09
2018-12-16T01:26:35.102Z,984.07
2018-12-16T01:27:35.274Z,984.02
2018-12-16T01:28:35.460Z,984.03
2018-12-16T01:29:35.649Z,984.00
2018-12-16T01:30:35.813Z,983.99
2018-12-16T01:31:35.991Z,984.00
2018-12-16T01:32:36.169Z,984.00
2018-12-16T01:33:36.344Z,983.98
2018-12-16T01:34:36.525Z,983.94
2018-12-16T01:35:36.700Z,983.96
2018-12-16T01:36:36.877Z,983.96
2018-12-16T01:37:37.060Z,983.94
2018-12-16T01:38:37.233Z,983.94
2018-12-16T01:39:37.413Z,983.93
2018-12-16T01:40:37.577Z,983.89
2018-12-16T01:41:37.750Z,983.91
2018-12-16T01:42:37.929Z,983.84
2018-12-16T01:43:38.117Z,983.83
2018-12-16T01:44:38.304Z,983.85
2018-12-16T01:45:38.485Z,983.89
2018-12-16T01:46:38.655Z,983.90
2018-12-16T01:47:38.838Z,983.92
2018-12-16T01:48:39.008Z,983.88
2018-12-16T01:49:39.184Z,983.90
2018-12-16T01:50:39.368Z,983.90
2018-12-16T01:51:39.546Z,983.87
2018-12-16T01:52:39.717Z,983.89
2018-12-16T01:53:39.893Z,983.87
2018-12-16T01:54:40.072Z,983.86
2018-12-16T01:55:40.250Z,983.85
2018-12-16T01:56:40.431Z,983.82
2018-12-16T01:57:40.605Z,983.82
2018-12-16T01:58:40.783Z,983.81
2018-12-16T01:59:40.962Z,983.78
2018-12-16T02:00:41.134Z,983.80
2018-12-16T02:01:41.313Z,983.73
2018-12-16T02:02:41.486Z,983.73
2018-12-16T02:03:41.668Z,983.69
2018-12-16T02:04:41.843Z,983.72
2018-12-16T02:05:42.018Z,983.76
2018-12-16T02:06:42.198Z,983.75
2018-12-16T02:07:42.374Z,983.70
2018-12-16T02:08:42.556Z,983.73
2018-12-16T02:09:42.728Z,983.76
2018-12-16T02:10:42.906Z,983.75
2018-12-16T02:11:43.083Z,983.83
2018-12-16T02:12:43.261Z,983.75
2018-12-16T02:13:43.439Z,983.76
2018-12-16T02:14:43.617Z,983.79
2018-12-16T02:15:43.794Z,983.78
2018-12-16T02:16:43.973Z,983.77
2018-12-16T02:17:44.151Z,983.76
2018-12-16T02:18:44.327Z,983.78
2018-12-16T02:19:44.512Z,983.72
2018-12-16T02:20:44.684Z,983.73
2018-12-16T02:21:44.864Z,983.72
2018-12-16T02:22:45.036Z,983.75
2018-12-16T02:23:45.211Z,983.75
2018-12-16T02:24:45.391Z,983.72
2018-12-16T02:25:45.566Z,983.68
2018-12-16T02:26:45.741Z,983.71
2018-12-16T02:27:45.927Z,983.70
2018-12-16T02:28:46.105Z,983.68
2018-12-16T02:29:46.278Z,983.68
2018-12-16T02:30:46.457Z,983.67
2018-12-16T02:31:46.638Z,983.69
2018-12-16T02:32:46.814Z,983.67
2018-12-16T02:33:47.000Z,983.66
2018-12-16T02:34:47.164Z,983.64
2018-12-16T02:35:47.339Z,983.64
2018-12-16T02:36:47.530Z,983.58
2018-12-16T02:37:47.698Z,983.57
2018-12-16T02:38:47.876Z,983.58
2018-12-16T02:39:48.047Z,983.57
2018-12-16T02:40:48.218Z,983.52
2018-12-16T02:41:48.395Z,983.50
2018-12-16T02:42:48.613Z,983.49
2018-12-16T02:43:48.754Z,983.53
2018-12-16T02:44:48.932Z,983.48
2018-12-16T02:45:49.108Z,983.47
2018-12-16T02:46:49.284Z,983.48
2018-12-16T02:47:49.453Z,983.44
2018-12-16T02:48:49.631Z,983.43
2018-12-16T02:49:49.810Z,983.38
2018-12-16T02:50:49.985Z,983.34
2018-12-16T02:51:50.163Z,983.29
2018-12-16T02:52:50.337Z,983.31
2018-12-16T02:53:50.511Z,983.32
2018-12-16T02:54:50.690Z,983.34
2018-12-16T02:55:50.876Z,983.29
2018-12-16T02:56:51.050Z,983.27
2018-12-16T02:57:51.227Z,983.28
2018-12-16T02:58:51.400Z,983.29
2018-12-16T02:59:51.598Z,983.29
2018-12-16T03:00:51.783Z,983.25
2018-12-16T03:01:51.955Z,983.24
2018-12-16T03:02:52.133Z,983.24
2018-12-16T03:03:52.316Z,983.24
2018-12-16T03:04:52.494Z,983.18
2018-12-16T03:05:52.668Z,983.19
2018-12-16T03:06:52.849Z,983.18
2018-12-16T03:07:53.022Z,983.19
2018-12-16T03:08:53.200Z,983.17
2018-12-16T03:09:53.378Z,983.16
2018-12-16T03:10:53.551Z,983.09
2018-12-16T03:11:53.736Z,983.07
2018-12-16T03:12:53.910Z,983.06
2018-12-16T03:13:54.085Z,983.07
2018-12-16T03:14:54.265Z,983.04
2018-12-16T03:15:54.443Z,983.00
2018-12-16T03:16:54.617Z,982.99
2018-12-16T03:17:54.803Z,982.95
2018-12-16T03:18:54.977Z,982.94
2018-12-16T03:19:55.138Z,982.91
2018-12-16T03:20:55.314Z,982.82
2018-12-16T03:21:55.487Z,982.81
2018-12-16T03:22:55.668Z,982.79
2018-12-16T03:23:55.843Z,982.74
2018-12-16T03:24:56.027Z,982.74
2018-12-16T03:25:56.199Z,982.68
2018-12-16T03:26:56.378Z,982.67
2018-12-16T03:27:56.552Z,982.64
2018-12-16T03:28:56.730Z,982.63
2018-12-16T03:29:56.901Z,982.61
2018-12-16T03:30:57.079Z,982.53
2018-12-16T03:31:57.257Z,982.52
2018-12-16T03:32:57.432Z,982.46
2018-12-16T03:33:57.612Z,982.40
2018-12-16T03:34:57.789Z,982.39
2018-12-16T03:35:57.964Z,982.33
2018-12-16T03:36:58.146Z,982.30
2018-12-16T03:37:58.331Z,982.25
2018-12-16T03:38:58.509Z,982.21
2018-12-16T03:39:58.690Z,982.25
2018-12-16T03:40:58.870Z,982.24
2018-12-16T03:41:59.043Z,982.19
2018-12-16T03:42:59.221Z,982.16
2018-12-16T03:43:59.396Z,982.15
2018-12-16T03:44:59.577Z,982.14
2018-12-16T03:45:59.750Z,982.11
2018-12-16T03:46:59.926Z,982.16
2018-12-16T03:48:00.108Z,982.16
2018-12-16T03:49:00.281Z,982.12
2018-12-16T03:50:00.466Z,982.16
2018-12-16T03:51:00.642Z,982.15
2018-12-16T03:52:00.822Z,982.11
2018-12-16T03:53:01.000Z,982.09
2018-12-16T03:54:01.171Z,982.12
2018-12-16T03:55:01.350Z,982.13
2018-12-16T03:56:01.535Z,982.12
2018-12-16T03:57:01.710Z,982.13
2018-12-16T03:58:01.897Z,982.12
2018-12-16T03:59:02.084Z,982.10
2018-12-16T04:00:02.255Z,982.04
2018-12-16T04:01:02.429Z,982.01
2018-12-16T04:02:02.603Z,982.00
2018-12-16T04:03:02.789Z,981.95
2018-12-16T04:04:02.959Z,981.92
2018-12-16T04:05:03.137Z,981.90
2018-12-16T04:06:03.327Z,981.84
2018-12-16T04:07:03.503Z,981.83
2018-12-16T04:08:03.681Z,981.81
2018-12-16T04:09:03.853Z,981.78
2018-12-16T04:10:04.034Z,981.77
2018-12-16T04:11:04.216Z,981.73
2018-12-16T04:12:04.385Z,981.72
2018-12-16T04:13:04.567Z,981.68
2018-12-16T04:14:04.739Z,981.69
2018-12-16T04:15:04.914Z,981.65
2018-12-16T04:16:05.093Z,981.67
2018-12-16T04:17:05.273Z,981.67
2018-12-16T04:18:05.451Z,981.69
2018-12-16T04:19:05.625Z,981.68
2018-12-16T04:20:05.809Z,981.63
2018-12-16T04:21:05.988Z,981.59
2018-12-16T04:22:06.165Z,981.61
2018-12-16T04:23:06.351Z,981.64
2018-12-16T04:24:06.526Z,981.64
2018-12-16T04:25:06.708Z,981.62
2018-12-16T04:26:06.881Z,981.61
2018-12-16T04:27:07.053Z,981.59
2018-12-16T04:28:07.236Z,981.59
2018-12-16T04:29:07.409Z,981.61
2018-12-16T04:30:07.588Z,981.56
2018-12-16T04:31:07.768Z,981.55
2018-12-16T04:32:07.945Z,981.50
2018-12-16T04:33:08.126Z,981.53
2018-12-16T04:34:08.296Z,981.51
2018-12-16T04:35:08.473Z,981.47
2018-12-16T04:36:08.661Z,981.50
2018-12-16T04:37:08.839Z,981.42
2018-12-16T04:38:09.020Z,981.44
2018-12-16T04:39:09.198Z,981.41
2018-12-16T04:40:09.752Z,981.37
2018-12-16T04:41:09.593Z,981.35
2018-12-16T04:42:09.769Z,981.27
2018-12-16T04:43:09.952Z,981.21
2018-12-16T04:44:10.129Z,981.17
2018-12-16T04:45:10.310Z,981.14
2018-12-16T04:46:10.483Z,981.09
2018-12-16T04:47:10.661Z,981.10
2018-12-16T04:48:10.834Z,981.09
2018-12-16T04:49:11.013Z,981.09
2018-12-16T04:50:11.190Z,981.04
2018-12-16T04:51:11.366Z,981.02
2018-12-16T04:52:11.543Z,981.00
2018-12-16T04:53:11.718Z,980.93
2018-12-16T04:54:11.895Z,980.88
2018-12-16T04:55:12.070Z,980.86
2018-12-16T04:56:12.244Z,980.86
2018-12-16T04:57:12.422Z,980.90
2018-12-16T04:58:12.597Z,980.90
2018-12-16T04:59:12.775Z,980.93
2018-12-16T05:00:12.956Z,980.93
2018-12-16T05:01:13.137Z,980.93
2018-12-16T05:02:13.313Z,980.98
2018-12-16T05:03:13.491Z,980.98
2018-12-16T05:04:13.664Z,981.00
2018-12-16T05:05:13.850Z,981.06
2018-12-16T05:06:14.025Z,981.00
2018-12-16T05:07:14.209Z,981.03
2018-12-16T05:08:14.395Z,981.00
2018-12-16T05:09:14.565Z,981.01
2018-12-16T05:10:14.748Z,980.95
2018-12-16T05:11:14.920Z,980.93
2018-12-16T05:12:15.107Z,980.97
2018-12-16T05:13:15.287Z,980.95
2018-12-16T05:14:15.458Z,980.92
2018-12-16T05:15:15.635Z,980.93
2018-12-16T05:16:15.807Z,980.86
2018-12-16T05:17:15.991Z,980.86
2018-12-16T05:18:16.169Z,980.88
2018-12-16T05:19:16.340Z,980.86
2018-12-16T05:20:16.521Z,980.87
2018-12-16T05:21:16.694Z,980.89
2018-12-16T05:22:16.871Z,980.88
2018-12-16T05:23:17.049Z,980.88
2018-12-16T05:24:17.234Z,980.91
2018-12-16T05:25:17.418Z,980.94
2018-12-16T05:26:17.600Z,980.92
2018-12-16T05:27:17.776Z,980.97
2018-12-16T05:28:17.951Z,980.91
2018-12-16T05:29:18.133Z,980.89
2018-12-16T05:30:18.313Z,980.86
2018-12-16T05:31:18.483Z,980.85
2018-12-16T05:32:18.657Z,980.79
2018-12-16T05:33:18.840Z,980.75
2018-12-16T05:34:19.012Z,980.72
2018-12-16T05:35:19.190Z,980.67
2018-12-16T05:36:19.363Z,980.64
2018-12-16T05:37:19.532Z,980.64
2018-12-16T05:38:19.722Z,980.66
2018-12-16T05:39:19.895Z,980.68
2018-12-16T05:40:20.077Z,980.72
2018-12-16T05:41:20.246Z,980.69
2018-12-16T05:42:20.431Z,980.71
2018-12-16T05:43:20.606Z,980.74
2018-12-16T05:44:20.781Z,980.73
2018-12-16T05:45:20.960Z,980.74
2018-12-16T05:46:21.149Z,980.75
2018-12-16T05:47:21.311Z,980.79
2018-12-16T05:48:21.492Z,980.83
2018-12-16T05:49:21.668Z,980.82
2018-12-16T05:50:21.845Z,980.84
2018-12-16T05:51:22.023Z,980.81
2018-12-16T05:52:22.205Z,980.77
2018-12-16T05:53:22.381Z,980.77
2018-12-16T05:54:22.559Z,980.74
2018-12-16T05:55:22.735Z,980.78
2018-12-16T05:56:22.914Z,980.73
2018-12-16T05:57:23.092Z,980.75
2018-12-16T05:58:23.284Z,980.74
2018-12-16T05:59:23.463Z,980.72
2018-12-16T06:00:23.635Z,980.67
2018-12-16T06:01:23.818Z,980.65
2018-12-16T06:02:23.996Z,980.64
2018-12-16T06:03:24.171Z,980.63
2018-12-16T06:04:24.346Z,980.59
2018-12-16T06:05:24.522Z,980.58
2018-12-16T06:06:24.700Z,980.55
2018-12-16T06:07:24.880Z,980.51
2018-12-16T06:08:25.057Z,980.48
2018-12-16T06:09:25.241Z,980.50
2018-12-16T06:10:25.403Z,980.49
2018-12-16T06:11:25.593Z,980.52
2018-12-16T06:12:25.766Z,980.54
2018-12-16T06:13:25.990Z,980.55
2018-12-16T06:14:26.119Z,980.55
2018-12-16T06:15:26.295Z,980.58
2018-12-16T06:16:26.472Z,980.56
2018-12-16T06:17:26.649Z,980.56
2018-12-16T06:18:26.840Z,980.54
2018-12-16T06:19:27.003Z,980.56
2018-12-16T06:20:27.181Z,980.57
2018-12-16T06:21:27.358Z,980.55
2018-12-16T06:22:27.529Z,980.53
2018-12-16T06:23:27.701Z,980.47
2018-12-16T06:24:27.899Z,980.44
2018-12-16T06:25:28.059Z,980.44
2018-12-16T06:26:28.234Z,980.46
2018-12-16T06:27:28.409Z,980.49
2018-12-16T06:28:28.588Z,980.51
2018-12-16T06:29:28.767Z,980.50
2018-12-16T06:30:28.938Z,980.50
2018-12-16T06:31:29.120Z,980.48
2018-12-16T06:32:29.294Z,980.41
2018-12-16T06:33:29.470Z,980.37
2018-12-16T06:34:29.650Z,980.35
2018-12-16T06:35:29.823Z,980.35
2018-12-16T06:36:30.001Z,980.34
2018-12-16T06:37:30.179Z,980.33
2018-12-16T06:38:30.355Z,980.31
2018-12-16T06:39:30.531Z,980.27
2018-12-16T06:40:30.706Z,980.32
2018-12-16T06:41:30.889Z,980.35
2018-12-16T06:42:31.142Z,980.42
2018-12-16T06:43:31.256Z,980.46
2018-12-16T06:44:31.432Z,980.46
2018-12-16T06:45:31.602Z,980.46
2018-12-16T06:46:31.779Z,980.45
2018-12-16T06:47:31.987Z,980.48
2018-12-16T06:48:32.130Z,980.49
2018-12-16T06:49:32.298Z,980.44
2018-12-16T06:50:32.483Z,980.46
2018-12-16T06:51:32.655Z,980.43
2018-12-16T06:52:32.832Z,980.38
2018-12-16T06:53:33.010Z,980.38
2018-12-16T06:54:33.186Z,980.32
2018-12-16T06:55:33.365Z,980.30
2018-12-16T06:56:33.556Z,980.29
2018-12-16T06:57:33.717Z,980.32
2018-12-16T06:58:33.894Z,980.34
2018-12-16T06:59:34.078Z,980.36
2018-12-16T07:00:34.255Z,980.40
2018-12-16T07:01:34.437Z,980.38
2018-12-16T07:02:34.610Z,980.40
2018-12-16T07:03:34.782Z,980.47
2018-12-16T07:04:34.954Z,980.50
2018-12-16T07:05:35.139Z,980.49
2018-12-16T07:06:35.314Z,980.48
2018-12-16T07:07:35.492Z,980.49
2018-12-16T07:08:35.662Z,980.44
2018-12-16T07:09:35.842Z,980.44
2018-12-16T07:10:36.023Z,980.41
2018-12-16T07:11:36.194Z,980.40
2018-12-16T07:12:36.383Z,980.35
2018-12-16T07:13:36.571Z,980.36
2018-12-16T07:14:36.746Z,980.35
2018-12-16T07:15:36.916Z,980.42
2018-12-16T07:16:37.097Z,980.44
2018-12-16T07:17:37.271Z,980.47
2018-12-16T07:18:37.460Z,980.42
2018-12-16T07:19:37.633Z,980.46
2018-12-16T07:20:37.814Z,980.45
2018-12-16T07:21:37.983Z,980.42
2018-12-16T07:22:38.157Z,980.38
2018-12-16T07:23:38.347Z,980.38
2018-12-16T07:24:38.509Z,980.31
2018-12-16T07:25:38.698Z,980.30
2018-12-16T07:26:38.855Z,980.26
2018-12-16T07:27:39.030Z,980.26
2018-12-16T07:28:39.205Z,980.23
2018-12-16T07:29:39.395Z,980.21
2018-12-16T07:30:39.576Z,980.17
2018-12-16T07:31:39.747Z,980.19
2018-12-16T07:32:39.920Z,980.20
2018-12-16T07:33:40.101Z,980.17
2018-12-16T07:34:40.268Z,980.23
2018-12-16T07:35:40.458Z,980.27
2018-12-16T07:36:40.624Z,980.26
2018-12-16T07:37:40.802Z,980.25
2018-12-16T07:38:40.969Z,980.29
2018-12-16T07:39:41.140Z,980.31
2018-12-16T07:40:41.320Z,980.32
2018-12-16T07:41:41.493Z,980.36
2018-12-16T07:42:41.679Z,980.32
2018-12-16T07:43:41.856Z,980.34
2018-12-16T07:44:42.035Z,980.30
2018-12-16T07:45:42.204Z,980.30
2018-12-16T07:46:42.454Z,980.34
2018-12-16T07:47:42.557Z,980.36
2018-12-16T07:48:42.758Z,980.31
2018-12-16T07:49:42.923Z,980.37
2018-12-16T07:50:43.084Z,980.42
2018-12-16T07:51:43.268Z,980.46
2018-12-16T07:52:43.436Z,980.47
2018-12-16T07:53:43.616Z,980.49
2018-12-16T07:54:43.791Z,980.50
2018-12-16T07:55:43.974Z,980.51
2018-12-16T07:56:44.190Z,980.57
2018-12-16T07:57:44.367Z,980.55
2018-12-16T07:58:44.505Z,980.55
2018-12-16T07:59:44.678Z,980.59
2018-12-16T08:00:44.894Z,980.60
2018-12-16T08:01:45.040Z,980.61
2018-12-16T08:02:45.257Z,980.63
2018-12-16T08:03:45.395Z,980.64
2018-12-16T08:04:45.574Z,980.62
2018-12-16T08:05:45.751Z,980.65
2018-12-16T08:06:45.927Z,980.60
2018-12-16T08:07:46.121Z,980.59
2018-12-16T08:08:46.277Z,980.57
2018-12-16T08:09:46.462Z,980.54
2018-12-16T08:10:46.635Z,980.54
2018-12-16T08:11:46.815Z,980.52
2018-12-16T08:12:46.986Z,980.48
2018-12-16T08:13:47.173Z,980.47
2018-12-16T08:14:47.364Z,980.47
2018-12-16T08:15:47.541Z,980.48
2018-12-16T08:16:47.716Z,980.49
2018-12-16T08:17:47.904Z,980.46
2018-12-16T08:18:48.071Z,980.44
2018-12-16T08:19:48.256Z,980.48
2018-12-16T08:20:48.435Z,980.45
2018-12-16T08:21:48.612Z,980.49
2018-12-16T08:22:48.794Z,980.53
2018-12-16T08:23:48.979Z,980.47
2018-12-16T08:24:49.162Z,980.49
2018-12-16T08:25:49.335Z,980.53
2018-12-16T08:26:49.508Z,980.51
2018-12-16T08:27:49.682Z,980.51
2018-12-16T08:28:49.886Z,980.51
2018-12-16T08:29:50.041Z,980.50
2018-12-16T08:30:50.221Z,980.53
2018-12-16T08:31:50.397Z,980.53
2018-12-16T08:32:50.576Z,980.53
2018-12-16T08:33:50.764Z,980.54
2018-12-16T08:34:50.940Z,980.58
2018-12-16T08:35:51.116Z,980.56
2018-12-16T08:36:51.293Z,980.57
2018-12-16T08:37:51.467Z,980.56
2018-12-16T08:38:51.640Z,980.56
2018-12-16T08:39:51.815Z,980.55
2018-12-16T08:40:51.995Z,980.54
2018-12-16T08:41:52.173Z,980.53
2018-12-16T08:42:52.360Z,980.53
2018-12-16T08:43:52.535Z,980.50
2018-12-16T08:44:52.706Z,980.51
2018-12-16T08:45:52.889Z,980.53
2018-12-16T08:46:53.063Z,980.57
2018-12-16T08:47:53.238Z,980.58
2018-12-16T08:48:53.415Z,980.58
2018-12-16T08:49:53.591Z,980.53
2018-12-16T08:50:53.755Z,980.52
2018-12-16T08:51:53.951Z,980.52
2018-12-16T08:52:54.127Z,980.51
2018-12-16T08:53:54.299Z,980.53
2018-12-16T08:54:54.478Z,980.56
2018-12-16T08:55:54.669Z,980.57
2018-12-16T08:56:54.842Z,980.61
2018-12-16T08:57:55.023Z,980.59
2018-12-16T08:58:55.198Z,980.58
2018-12-16T08:59:55.376Z,980.54
2018-12-16T09:00:55.543Z,980.49
2018-12-16T09:01:55.748Z,980.44
2018-12-16T09:02:55.918Z,980.42
2018-12-16T09:03:56.092Z,980.45
2018-12-16T09:04:56.269Z,980.47
2018-12-16T09:05:56.446Z,980.49
2018-12-16T09:06:56.622Z,980.53
2018-12-16T09:07:56.791Z,980.53
2018-12-16T09:08:56.959Z,980.54
2018-12-16T09:09:57.149Z,980.53
2018-12-16T09:10:57.327Z,980.57
2018-12-16T09:11:57.486Z,980.56
2018-12-16T09:12:57.680Z,980.54
2018-12-16T09:13:57.867Z,980.56
2018-12-16T09:14:58.052Z,980.54
2018-12-16T09:15:58.228Z,980.54
2018-12-16T09:16:58.422Z,980.56
2018-12-16T09:17:58.590Z,980.57
2018-12-16T09:18:58.766Z,980.55
2018-12-16T09:19:58.934Z,980.46
2018-12-16T09:20:59.108Z,980.49
2018-12-16T09:21:59.288Z,980.53
2018-12-16T09:22:59.452Z,980.51
2018-12-16T09:23:59.621Z,980.55
2018-12-16T09:24:59.817Z,980.52
2018-12-16T09:25:59.995Z,980.57
2018-12-16T09:27:00.190Z,980.59
2018-12-16T09:28:00.356Z,980.60
2018-12-16T09:29:00.522Z,980.62
2018-12-16T09:30:00.689Z,980.61
2018-12-16T09:31:01.000Z,980.64
2018-12-16T09:32:02.776Z,980.57
2018-12-16T09:33:01.273Z,980.59
2018-12-16T09:34:01.487Z,980.65
2018-12-16T09:35:01.657Z,980.63
2018-12-16T09:36:01.807Z,980.65
2018-12-16T09:37:01.972Z,980.70
2018-12-16T09:39:44.841Z,980.77
2018-12-16T09:40:45.016Z,980.75
2018-12-16T09:41:45.195Z,980.74
2018-12-16T09:42:45.372Z,980.76
2018-12-16T09:43:45.554Z,980.72
2018-12-16T09:44:45.734Z,980.71
2018-12-16T09:45:49.456Z,980.71
2018-12-16T09:46:46.088Z,980.68
2018-12-16T09:47:46.269Z,980.66
2018-12-16T09:48:46.448Z,980.69
2018-12-16T09:49:46.622Z,980.73
2018-12-16T09:50:46.813Z,980.69
2018-12-16T09:51:46.978Z,980.73
2018-12-16T09:52:47.157Z,980.73
2018-12-16T09:53:47.330Z,980.72
2018-12-16T09:54:47.507Z,980.72
2018-12-16T09:55:47.673Z,980.69
2018-12-16T09:56:47.868Z,980.69
2018-12-16T09:57:48.069Z,980.67
2018-12-16T09:58:48.239Z,980.67
2018-12-16T09:59:48.414Z,980.63
2018-12-16T10:00:48.589Z,980.64
2018-12-16T10:01:48.767Z,980.63
2018-12-16T10:02:48.956Z,980.67
2018-12-16T10:03:49.131Z,980.67
2018-12-16T10:04:49.312Z,980.70
2018-12-16T10:05:49.488Z,980.71
2018-12-16T10:06:49.678Z,980.70
2018-12-16T10:07:49.848Z,980.70
2018-12-16T10:08:50.030Z,980.72
2018-12-16T10:09:50.220Z,980.64
2018-12-16T10:10:50.389Z,980.68
2018-12-16T10:11:50.567Z,980.63
2018-12-16T10:12:50.741Z,980.67
2018-12-16T10:13:50.917Z,980.66
2018-12-16T10:14:51.097Z,980.68
2018-12-16T10:15:51.302Z,980.70
2018-12-16T10:16:51.488Z,980.69
2018-12-16T10:17:51.667Z,980.67
2018-12-16T10:18:51.846Z,980.64
2018-12-16T10:19:52.026Z,980.60
2018-12-16T10:20:52.191Z,980.62
2018-12-16T10:21:52.369Z,980.64
2018-12-16T10:22:52.549Z,980.61
2018-12-16T10:23:52.735Z,980.63
2018-12-16T10:24:52.919Z,980.61
2018-12-16T10:25:53.093Z,980.58
2018-12-16T10:26:53.272Z,980.52
2018-12-16T10:27:53.448Z,980.53
2018-12-16T10:28:53.627Z,980.49
2018-12-16T10:29:53.800Z,980.51
2018-12-16T10:30:53.978Z,980.49
2018-12-16T10:31:54.160Z,980.47
2018-12-16T10:32:54.332Z,980.48
2018-12-16T10:33:54.506Z,980.45
2018-12-16T10:34:54.685Z,980.44
2018-12-16T10:35:54.860Z,980.45
2018-12-16T10:36:55.035Z,980.41
2018-12-16T10:37:55.214Z,980.39
2018-12-16T10:38:55.387Z,980.35
2018-12-16T10:39:55.570Z,980.40
2018-12-16T10:40:55.747Z,980.39
2018-12-16T10:41:55.925Z,980.42
2018-12-16T10:42:56.094Z,980.35
2018-12-16T10:43:56.286Z,980.37
2018-12-16T10:44:56.454Z,980.34
2018-12-16T10:45:56.626Z,980.34
2018-12-16T10:46:56.802Z,980.35
2018-12-16T10:47:56.974Z,980.38
2018-12-16T10:48:57.151Z,980.42
2018-12-16T10:49:57.327Z,980.40
2018-12-16T10:50:57.503Z,980.42
2018-12-16T10:51:57.682Z,980.44
2018-12-16T10:52:57.860Z,980.45
2018-12-16T10:53:58.044Z,980.46
2018-12-16T10:54:58.806Z,980.43
2018-12-16T10:55:58.435Z,980.39
2018-12-16T10:56:58.564Z,980.40
2018-12-16T10:57:58.742Z,980.33
2018-12-16T10:58:58.912Z,980.37
2018-12-16T10:59:59.168Z,980.35
2018-12-16T11:00:59.312Z,980.30
2018-12-16T11:01:59.465Z,980.32
2018-12-16T11:02:59.647Z,980.31
2018-12-16T11:03:59.823Z,980.28
2018-12-16T11:04:59.997Z,980.31
2018-12-16T11:06:00.174Z,980.27
2018-12-16T11:07:00.407Z,980.29
2018-12-16T11:08:00.527Z,980.24
2018-12-16T11:09:00.702Z,980.26
2018-12-16T11:10:00.880Z,980.29
2018-12-16T11:11:01.061Z,980.27
2018-12-16T11:12:01.237Z,980.24
2018-12-16T11:13:01.407Z,980.18
2018-12-16T11:14:01.583Z,980.15
2018-12-16T11:15:01.766Z,980.07
2018-12-16T11:16:01.940Z,980.05
2018-12-16T11:17:02.122Z,980.00
2018-12-16T11:18:02.298Z,979.95
2018-12-16T11:19:02.488Z,979.92
2018-12-16T11:20:02.655Z,979.91
2018-12-16T11:21:02.816Z,979.89
2018-12-16T11:23:45.681Z,979.92
2018-12-16T11:24:45.858Z,979.93
2018-12-16T11:25:46.029Z,979.88
2018-12-16T11:26:46.207Z,979.89
2018-12-16T11:27:46.387Z,979.83
2018-12-16T11:28:46.567Z,979.78
2018-12-16T11:29:46.744Z,979.79
2018-12-16T11:30:46.929Z,979.78
2018-12-16T11:31:47.109Z,979.80
2018-12-16T11:32:47.292Z,979.82
2018-12-16T11:33:47.485Z,979.88
2018-12-16T11:34:47.672Z,979.86
2018-12-16T11:35:47.843Z,979.90
2018-12-16T11:36:48.020Z,979.95
2018-12-16T11:37:48.202Z,979.92
2018-12-16T11:38:48.383Z,979.87
2018-12-16T11:39:48.562Z,979.83
2018-12-16T11:40:48.788Z,979.84
2018-12-16T11:41:48.943Z,979.80
2018-12-16T11:42:49.122Z,979.75
2018-12-16T11:43:49.298Z,979.70
2018-12-16T11:44:49.470Z,979.67
2018-12-16T11:45:49.664Z,979.66
2018-12-16T11:46:49.845Z,979.66
2018-12-16T11:47:50.038Z,979.70
2018-12-16T11:48:50.208Z,979.64
2018-12-16T11:49:50.443Z,979.63
2018-12-16T11:50:50.577Z,979.63
2018-12-16T11:51:50.754Z,979.65
2018-12-16T11:52:50.942Z,979.69
2018-12-16T11:53:51.125Z,979.69
2018-12-16T11:54:51.315Z,979.68
2018-12-16T11:55:51.498Z,979.70
2018-12-16T11:56:52.017Z,979.70
2018-12-16T11:57:51.812Z,979.69
2018-12-16T11:58:51.999Z,979.72
2018-12-16T11:59:52.176Z,979.67
2018-12-16T12:00:52.353Z,979.69
2018-12-16T12:01:52.542Z,979.66
2018-12-16T12:02:52.719Z,979.65
2018-12-16T12:03:52.894Z,979.61
2018-12-16T12:04:53.072Z,979.62
2018-12-16T12:05:53.251Z,979.60
2018-12-16T12:06:53.432Z,979.62
2018-12-16T12:07:53.619Z,979.61
2018-12-16T12:08:53.795Z,979.61
2018-12-16T12:09:53.976Z,979.61
2018-12-16T12:10:54.154Z,979.65
2018-12-16T12:11:54.342Z,979.60
2018-12-16T12:12:54.516Z,979.64
2018-12-16T12:13:54.710Z,979.68
2018-12-16T12:14:54.903Z,979.63
2018-12-16T12:15:55.057Z,979.61
2018-12-16T12:16:55.248Z,979.63
2018-12-16T12:17:55.518Z,979.60
2018-12-16T12:18:55.618Z,979.57
2018-12-16T12:19:56.081Z,979.60
2018-12-16T12:20:55.971Z,979.64
2018-12-16T12:21:56.162Z,979.58
2018-12-16T12:22:56.355Z,979.56
2018-12-16T12:23:56.640Z,979.58
2018-12-16T12:24:56.701Z,979.53
2018-12-16T12:25:56.885Z,979.49
2018-12-16T12:26:57.083Z,979.49
2018-12-16T12:27:57.270Z,979.52
2018-12-16T12:28:57.451Z,979.51
2018-12-16T12:29:57.633Z,979.54
2018-12-16T12:30:57.814Z,979.56
2018-12-16T12:31:57.993Z,979.54
2018-12-16T12:32:58.165Z,979.52
2018-12-16T12:33:58.341Z,979.56